createdAt,value
2017-08-13T00:00:55.598Z,14.72
2017-08-13T00:02:06.137Z,14.77
2017-08-13T00:03:16.843Z,14.74
2017-08-13T00:04:27.337Z,14.7
2017-08-13T00:05:37.816Z,14.65
2017-08-13T00:06:48.303Z,14.65
2017-08-13T00:07:58.776Z,14.66
2017-08-13T00:09:09.463Z,14.62
2017-08-13T00:10:19.953Z,14.66
2017-08-13T00:11:30.443Z,14.66
2017-08-13T00:12:40.593Z,14.62
2017-08-13T00:13:51.093Z,14.67
2017-08-13T00:15:01.845Z,14.72
2017-08-13T00:16:12.334Z,14.66
2017-08-13T00:17:22.472Z,14.65
2017-08-13T00:18:32.475Z,14.66
2017-08-13T00:19:42.496Z,14.63
2017-08-13T00:20:53.200Z,14.6
2017-08-13T00:22:03.748Z,14.67
2017-08-13T00:23:14.289Z,14.51
2017-08-13T00:24:24.733Z,14.51
2017-08-13T00:25:35.203Z,14.45
2017-08-13T00:26:46.039Z,14.44
2017-08-13T00:27:56.503Z,14.45
2017-08-13T00:29:06.552Z,14.39
2017-08-13T00:30:17.082Z,14.37
2017-08-13T00:31:27.567Z,14.39
2017-08-13T00:32:38.330Z,14.37
2017-08-13T00:33:48.888Z,14.4
2017-08-13T00:34:59.359Z,14.37
2017-08-13T00:36:09.895Z,14.36
2017-08-13T00:37:20.338Z,14.29
2017-08-13T00:38:31.214Z,14.22
2017-08-13T00:39:41.684Z,14.28
2017-08-13T00:40:52.297Z,14.29
2017-08-13T00:42:02.754Z,14.25
2017-08-13T00:43:13.277Z,14.21
2017-08-13T00:44:23.808Z,14.21
2017-08-13T00:45:34.265Z,14.19
2017-08-13T00:46:44.722Z,14.18
2017-08-13T00:47:54.874Z,14.13
2017-08-13T00:49:05.376Z,14.19
2017-08-13T00:50:16.073Z,14.16
2017-08-13T00:51:26.543Z,14.1
2017-08-13T00:52:37.025Z,14.16
2017-08-13T00:53:47.506Z,14.11
2017-08-13T00:54:57.944Z,14.1
2017-08-13T00:56:08.685Z,14.07
2017-08-13T00:57:19.195Z,14.18
2017-08-13T00:58:29.670Z,14.07
2017-08-13T00:59:40.134Z,14.09
2017-08-13T01:00:50.594Z,14.06
2017-08-13T01:02:01.545Z,14.16
2017-08-13T01:03:11.781Z,14.11
2017-08-13T01:04:21.940Z,14.1
2017-08-13T01:05:32.257Z,14.09
2017-08-13T01:06:42.780Z,14.1
2017-08-13T01:07:53.555Z,14.06
2017-08-13T01:09:04.076Z,14.02
2017-08-13T01:10:14.224Z,14.06
2017-08-13T01:11:24.742Z,14.06
2017-08-13T01:12:35.213Z,14.02
2017-08-13T01:13:45.923Z,14.02
2017-08-13T01:14:56.099Z,14.06
2017-08-13T01:16:06.570Z,14.04
2017-08-13T01:17:17.031Z,14
2017-08-13T01:18:27.501Z,14
2017-08-13T01:19:38.397Z,14
2017-08-13T01:20:48.857Z,13.95
2017-08-13T01:21:59.317Z,14
2017-08-13T01:23:09.869Z,13.95
2017-08-13T01:24:20.334Z,13.99
2017-08-13T01:25:31.048Z,14.03
2017-08-13T01:26:41.524Z,14.04
2017-08-13T01:27:51.999Z,14
2017-08-13T01:29:02.135Z,13.99
2017-08-13T01:30:12.606Z,14.03
2017-08-13T01:31:23.336Z,14
2017-08-13T01:32:33.780Z,14.02
2017-08-13T01:33:44.275Z,13.86
2017-08-13T01:34:54.918Z,13.91
2017-08-13T01:36:05.414Z,13.92
2017-08-13T01:37:16.333Z,13.92
2017-08-13T01:38:26.433Z,13.92
2017-08-13T01:39:37.033Z,13.85
2017-08-13T01:40:48.034Z,13.82
2017-08-13T01:41:58.492Z,13.84
2017-08-13T01:43:09.190Z,13.84
2017-08-13T01:44:19.680Z,13.79
2017-08-13T01:45:30.130Z,13.85
2017-08-13T01:46:40.134Z,13.82
2017-08-13T01:47:50.603Z,13.79
2017-08-13T01:49:01.322Z,13.79
2017-08-13T01:50:11.775Z,13.76
2017-08-13T01:51:21.794Z,13.73
2017-08-13T01:52:33.329Z,13.69
2017-08-13T01:53:43.815Z,13.64
2017-08-13T01:54:54.494Z,13.59
2017-08-13T01:56:04.253Z,13.63
2017-08-13T01:57:14.741Z,13.71
2017-08-13T01:58:24.896Z,13.61
2017-08-13T01:59:35.518Z,13.56
2017-08-13T02:00:46.329Z,13.55
2017-08-13T02:01:56.487Z,13.56
2017-08-13T02:03:06.965Z,13.59
2017-08-13T02:04:17.431Z,13.59
2017-08-13T02:05:27.904Z,13.55
2017-08-13T02:06:38.601Z,13.59
2017-08-13T02:07:49.087Z,13.55
2017-08-13T02:08:59.533Z,13.63
2017-08-13T02:10:09.695Z,13.55
2017-08-13T02:11:20.231Z,13.64
2017-08-13T02:12:31.019Z,13.64
2017-08-13T02:13:41.468Z,13.69
2017-08-13T02:15:23.734Z,13.7
2017-08-13T02:16:34.197Z,13.71
2017-08-13T02:17:44.921Z,13.74
2017-08-13T02:18:55.062Z,13.79
2017-08-13T02:20:05.959Z,13.79
2017-08-13T02:21:16.116Z,13.79
2017-08-13T02:22:26.572Z,13.84
2017-08-13T02:23:37.282Z,13.84
2017-08-13T02:24:47.638Z,13.81
2017-08-13T02:25:57.794Z,13.82
2017-08-13T02:27:08.266Z,13.86
2017-08-13T02:28:18.700Z,13.81
2017-08-13T02:29:29.525Z,13.86
2017-08-13T02:30:40.036Z,13.91
2017-08-13T02:31:50.485Z,14
2017-08-13T02:33:00.962Z,13.88
2017-08-13T02:34:12.457Z,13.91
2017-08-13T02:35:22.865Z,13.95
2017-08-13T02:36:33.326Z,13.94
2017-08-13T02:37:43.607Z,14.02
2017-08-13T02:38:54.052Z,14.02
2017-08-13T02:40:04.263Z,13.95
2017-08-13T02:41:14.958Z,13.99
2017-08-13T02:42:25.457Z,14
2017-08-13T02:43:35.907Z,13.96
2017-08-13T02:44:46.438Z,14.03
2017-08-13T02:45:56.886Z,14.1
2017-08-13T02:47:07.600Z,14.06
2017-08-13T02:48:17.611Z,14.09
2017-08-13T02:49:27.772Z,14.1
2017-08-13T02:50:38.219Z,14.09
2017-08-13T02:51:48.679Z,14.04
2017-08-13T02:52:59.089Z,14.02
2017-08-13T02:54:09.583Z,14.06
2017-08-13T02:55:20.044Z,14.07
2017-08-13T02:56:30.513Z,14
2017-08-13T02:57:40.968Z,14
2017-08-13T02:58:51.453Z,14.03
2017-08-13T03:00:01.907Z,14.04
2017-08-13T03:01:12.414Z,14.06
2017-08-13T03:02:22.861Z,14
2017-08-13T03:03:33.343Z,14.06
2017-08-13T03:04:43.437Z,14.04
2017-08-13T03:05:53.896Z,14.11
2017-08-13T03:07:04.091Z,14.14
2017-08-13T03:08:14.555Z,14.1
2017-08-13T03:09:24.996Z,14.13
2017-08-13T03:10:35.701Z,14.19
2017-08-13T03:11:46.172Z,14.09
2017-08-13T03:12:56.764Z,14.13
2017-08-13T03:14:07.258Z,14.13
2017-08-13T03:15:17.560Z,14.16
2017-08-13T03:16:28.292Z,14.19
2017-08-13T03:17:38.777Z,14.24
2017-08-13T03:18:49.338Z,14.28
2017-08-13T03:19:59.788Z,14.24
2017-08-13T03:21:10.245Z,14.21
2017-08-13T03:22:20.971Z,14.22
2017-08-13T03:23:31.441Z,14.22
2017-08-13T03:24:41.618Z,14.26
2017-08-13T03:25:51.450Z,14.24
2017-08-13T03:27:01.918Z,14.25
2017-08-13T03:28:12.180Z,14.26
2017-08-13T03:29:22.690Z,14.26
2017-08-13T03:30:33.141Z,14.29
2017-08-13T03:31:43.312Z,14.22
2017-08-13T03:32:54.012Z,14.24
2017-08-13T03:34:04.699Z,14.28
2017-08-13T03:35:15.137Z,14.22
2017-08-13T03:36:25.599Z,14.25
2017-08-13T03:37:36.156Z,14.28
2017-08-13T03:38:46.624Z,14.37
2017-08-13T03:39:57.352Z,14.39
2017-08-13T03:41:07.835Z,14.34
2017-08-13T03:42:18.294Z,14.43
2017-08-13T03:43:28.778Z,14.36
2017-08-13T03:44:39.222Z,14.29
2017-08-13T03:45:49.979Z,14.36
2017-08-13T03:47:00.485Z,14.39
2017-08-13T03:48:10.934Z,14.37
2017-08-13T03:49:21.405Z,14.34
2017-08-13T03:50:31.114Z,14.36
2017-08-13T03:51:41.814Z,14.34
2017-08-13T03:52:51.957Z,14.32
2017-08-13T03:54:02.289Z,14.4
2017-08-13T03:55:12.754Z,14.43
2017-08-13T03:56:23.237Z,14.4
2017-08-13T03:57:33.933Z,14.4
2017-08-13T03:58:44.396Z,14.34
2017-08-13T03:59:54.900Z,14.31
2017-08-13T04:01:05.352Z,14.48
2017-08-13T04:02:15.906Z,14.34
2017-08-13T04:03:26.349Z,14.45
2017-08-13T04:04:36.996Z,14.39
2017-08-13T04:05:47.485Z,14.36
2017-08-13T04:06:57.967Z,14.45
2017-08-13T04:08:08.448Z,14.4
2017-08-13T04:09:19.163Z,14.51
2017-08-13T04:10:29.446Z,14.45
2017-08-13T04:11:39.954Z,14.52
2017-08-13T04:12:50.409Z,14.56
2017-08-13T04:14:00.888Z,14.54
2017-08-13T04:15:11.645Z,14.51
2017-08-13T04:16:22.078Z,14.52
2017-08-13T04:17:32.538Z,14.5
2017-08-13T04:18:43.035Z,14.48
2017-08-13T04:19:53.598Z,14.51
2017-08-13T04:21:04.308Z,14.47
2017-08-13T04:22:14.774Z,14.52
2017-08-13T04:23:25.266Z,14.51
2017-08-13T04:24:35.778Z,14.51
2017-08-13T04:25:46.234Z,14.52
2017-08-13T04:26:56.205Z,14.51
2017-08-13T04:28:06.679Z,14.5
2017-08-13T04:29:17.302Z,14.5
2017-08-13T04:30:27.754Z,14.43
2017-08-13T04:31:38.259Z,14.5
2017-08-13T04:32:49.207Z,14.52
2017-08-13T04:33:59.703Z,14.52
2017-08-13T04:35:10.232Z,14.52
2017-08-13T04:36:20.390Z,14.58
2017-08-13T04:37:31.067Z,14.5
2017-08-13T04:38:41.494Z,14.52
2017-08-13T04:39:52.066Z,14.5
2017-08-13T04:41:02.525Z,14.48
2017-08-13T04:42:12.680Z,14.52
2017-08-13T04:43:23.149Z,14.47
2017-08-13T04:44:33.542Z,14.48
2017-08-13T04:45:44.030Z,14.4
2017-08-13T04:46:54.495Z,14.36
2017-08-13T04:48:04.980Z,14.36
2017-08-13T04:49:15.128Z,14.37
2017-08-13T04:50:25.911Z,14.43
2017-08-13T04:51:36.399Z,14.43
2017-08-13T04:52:46.857Z,14.39
2017-08-13T04:53:57.303Z,14.39
2017-08-13T04:55:07.820Z,14.37
2017-08-13T04:56:18.538Z,14.44
2017-08-13T04:57:28.786Z,14.36
2017-08-13T04:58:39.317Z,14.36
2017-08-13T04:59:49.813Z,14.5
2017-08-13T05:01:00.267Z,14.51
2017-08-13T05:02:10.676Z,14.47
2017-08-13T05:03:21.143Z,14.54
2017-08-13T05:04:31.605Z,14.58
2017-08-13T05:05:42.068Z,14.51
2017-08-13T05:06:52.212Z,14.63
2017-08-13T05:08:02.897Z,14.63
2017-08-13T05:09:13.324Z,14.72
2017-08-13T05:10:23.797Z,14.69
2017-08-13T05:11:34.403Z,14.77
2017-08-13T05:12:44.937Z,14.78
2017-08-13T05:13:54.888Z,14.88
2017-08-13T05:15:05.344Z,14.87
2017-08-13T05:16:15.921Z,14.87
2017-08-13T05:17:26.397Z,14.96
2017-08-13T05:18:36.528Z,14.99
2017-08-13T05:19:46.939Z,15.03
2017-08-13T05:20:57.319Z,15.09
2017-08-13T05:22:07.793Z,15.06
2017-08-13T05:23:18.272Z,15.02
2017-08-13T05:24:28.812Z,15.09
2017-08-13T05:25:39.590Z,15.08
2017-08-13T05:26:50.048Z,15.09
2017-08-13T05:27:59.883Z,15.09
2017-08-13T05:29:10.321Z,15.08
2017-08-13T05:30:20.938Z,15.11
2017-08-13T05:31:31.638Z,15.14
2017-08-13T05:32:42.148Z,15.13
2017-08-13T05:33:52.374Z,15.13
2017-08-13T05:35:02.816Z,15.21
2017-08-13T05:36:13.312Z,15.21
2017-08-13T05:37:24.123Z,15.17
2017-08-13T05:38:34.369Z,15.21
2017-08-13T05:39:45.808Z,15.21
2017-08-13T05:40:55.839Z,15.27
2017-08-13T05:42:06.175Z,15.23
2017-08-13T05:43:16.890Z,15.33
2017-08-13T05:44:27.367Z,15.32
2017-08-13T05:45:37.597Z,15.21
2017-08-13T05:46:48.178Z,15.25
2017-08-13T05:47:58.666Z,15.21
2017-08-13T05:49:09.070Z,15.29
2017-08-13T05:50:19.548Z,15.29
2017-08-13T05:51:29.693Z,15.32
2017-08-13T05:52:39.934Z,15.32
2017-08-13T05:53:50.407Z,15.36
2017-08-13T05:55:01.104Z,15.35
2017-08-13T05:56:11.587Z,15.29
2017-08-13T05:57:22.073Z,15.3
2017-08-13T05:58:32.535Z,15.38
2017-08-13T05:59:42.992Z,15.38
2017-08-13T06:00:53.689Z,15.39
2017-08-13T06:02:04.145Z,15.36
2017-08-13T06:03:14.296Z,15.38
2017-08-13T06:04:24.576Z,15.4
2017-08-13T06:05:35.022Z,15.45
2017-08-13T06:06:45.712Z,15.43
2017-08-13T06:07:56.215Z,15.4
2017-08-13T06:09:06.684Z,15.42
2017-08-13T06:10:17.365Z,15.46
2017-08-13T06:11:27.901Z,15.51
2017-08-13T06:12:38.765Z,15.48
2017-08-13T06:13:49.237Z,15.48
2017-08-13T06:14:59.710Z,15.58
2017-08-13T06:16:10.205Z,15.54
2017-08-13T06:17:20.653Z,15.58
2017-08-13T06:18:31.399Z,15.57
2017-08-13T06:19:41.858Z,15.54
2017-08-13T06:20:52.359Z,15.6
2017-08-13T06:22:02.822Z,15.61
2017-08-13T06:23:13.283Z,15.64
2017-08-13T06:24:23.688Z,15.68
2017-08-13T06:25:33.536Z,15.72
2017-08-13T06:26:43.557Z,15.69
2017-08-13T06:27:54.106Z,15.7
2017-08-13T06:29:04.609Z,15.68
2017-08-13T06:30:15.018Z,15.68
2017-08-13T06:31:25.467Z,15.72
2017-08-13T06:32:36.004Z,15.69
2017-08-13T06:33:46.223Z,15.63
2017-08-13T06:34:56.607Z,15.73
2017-08-13T06:36:06.959Z,15.7
2017-08-13T06:37:17.416Z,15.69
2017-08-13T06:38:27.871Z,15.8
2017-08-13T06:39:38.333Z,15.69
2017-08-13T06:40:48.403Z,15.7
2017-08-13T06:41:59.163Z,15.66
2017-08-13T06:43:09.287Z,15.68
2017-08-13T06:44:19.749Z,15.7
2017-08-13T06:45:30.223Z,15.68
2017-08-13T06:46:40.722Z,15.57
2017-08-13T06:47:51.433Z,15.66
2017-08-13T06:49:01.893Z,15.69
2017-08-13T06:50:12.052Z,15.66
2017-08-13T06:51:22.209Z,15.75
2017-08-13T06:52:32.912Z,15.68
2017-08-13T06:53:43.646Z,15.72
2017-08-13T06:54:54.567Z,15.73
2017-08-13T06:56:05.271Z,15.72
2017-08-13T06:57:15.753Z,15.79
2017-08-13T06:58:25.895Z,15.87
2017-08-13T06:59:36.451Z,15.89
2017-08-13T07:00:46.910Z,15.98
2017-08-13T07:01:57.400Z,15.99
2017-08-13T07:03:07.904Z,16.11
2017-08-13T07:04:18.380Z,16.2
2017-08-13T07:05:29.094Z,16.29
2017-08-13T07:06:39.562Z,16.43
2017-08-13T07:07:50.037Z,16.47
2017-08-13T07:09:00.546Z,16.47
2017-08-13T07:10:11.024Z,16.44
2017-08-13T07:11:21.407Z,16.42
2017-08-13T07:12:31.574Z,16.49
2017-08-13T07:13:42.119Z,16.49
2017-08-13T07:14:52.784Z,16.43
2017-08-13T07:16:03.252Z,16.44
2017-08-13T07:17:13.969Z,16.47
2017-08-13T07:18:24.476Z,16.44
2017-08-13T07:19:34.989Z,16.47
2017-08-13T07:20:45.452Z,16.47
2017-08-13T07:21:55.955Z,16.46
2017-08-13T07:23:06.671Z,16.53
2017-08-13T07:24:17.142Z,16.61
2017-08-13T07:25:27.638Z,16.59
2017-08-13T07:26:38.107Z,16.54
2017-08-13T07:27:48.578Z,16.53
2017-08-13T07:28:58.223Z,16.62
2017-08-13T07:30:08.675Z,16.57
2017-08-13T07:31:19.224Z,16.66
2017-08-13T07:32:29.685Z,16.68
2017-08-13T07:33:40.188Z,16.71
2017-08-13T07:34:50.401Z,16.68
2017-08-13T07:36:00.966Z,16.61
2017-08-13T07:37:11.459Z,16.59
2017-08-13T07:38:21.640Z,16.65
2017-08-13T07:39:32.092Z,16.69
2017-08-13T07:40:42.503Z,16.72
2017-08-13T07:41:53.085Z,16.76
2017-08-13T07:43:03.139Z,16.8
2017-08-13T07:44:13.595Z,16.71
2017-08-13T07:45:24.204Z,16.84
2017-08-13T07:46:34.984Z,16.83
2017-08-13T07:47:45.714Z,16.96
2017-08-13T07:48:56.197Z,17.01
2017-08-13T07:50:07.678Z,17.12
2017-08-13T07:51:18.174Z,17.21
2017-08-13T07:52:28.987Z,17.28
2017-08-13T07:53:39.513Z,17.24
2017-08-13T07:54:50.110Z,17.23
2017-08-13T07:56:00.638Z,17.38
2017-08-13T07:57:10.996Z,17.46
2017-08-13T07:58:21.759Z,17.49
2017-08-13T07:59:32.234Z,17.5
2017-08-13T08:00:42.824Z,17.45
2017-08-13T08:01:52.978Z,17.5
2017-08-13T08:03:03.186Z,17.55
2017-08-13T08:04:13.899Z,17.65
2017-08-13T08:05:24.218Z,17.72
2017-08-13T08:06:34.321Z,17.86
2017-08-13T08:07:44.809Z,17.91
2017-08-13T08:08:55.525Z,18
2017-08-13T08:10:06.225Z,18.05
2017-08-13T08:11:16.686Z,18.17
2017-08-13T08:12:27.095Z,18.32
2017-08-13T08:13:37.562Z,18.31
2017-08-13T08:14:48.031Z,18.56
2017-08-13T08:15:58.986Z,18.69
2017-08-13T08:17:09.152Z,18.87
2017-08-13T08:18:19.156Z,19.1
2017-08-13T08:19:29.620Z,19.19
2017-08-13T08:20:40.347Z,19.3
2017-08-13T08:21:50.627Z,19.52
2017-08-13T08:23:00.696Z,19.65
2017-08-13T08:24:11.164Z,19.82
2017-08-13T08:25:21.704Z,20.04
2017-08-13T08:26:31.851Z,20.26
2017-08-13T08:27:42.576Z,20.45
2017-08-13T08:28:53.056Z,20.93
2017-08-13T08:30:03.277Z,21.58
2017-08-13T08:31:13.454Z,22.57
2017-08-13T08:32:23.595Z,23.42
2017-08-13T08:33:34.022Z,23.82
2017-08-13T08:34:44.536Z,24.57
2017-08-13T08:35:55.048Z,25.28
2017-08-13T08:37:05.517Z,25.18
2017-08-13T08:38:16.105Z,25.07
2017-08-13T08:39:26.514Z,24.85
2017-08-13T08:40:37.007Z,24.45
2017-08-13T08:41:46.437Z,24.13
2017-08-13T08:42:57.188Z,23.76
2017-08-13T08:44:07.559Z,23.55
2017-08-13T08:45:17.966Z,23.09
2017-08-13T08:46:28.496Z,22.89
2017-08-13T08:47:39.031Z,22.63
2017-08-13T08:48:49.536Z,22.3
2017-08-13T08:50:00.037Z,22.26
2017-08-13T08:51:10.815Z,22.12
2017-08-13T08:52:21.287Z,21.96
2017-08-13T08:53:31.837Z,21.83
2017-08-13T08:54:42.008Z,21.57
2017-08-13T08:55:52.549Z,21.45
2017-08-13T08:57:03.274Z,21.37
2017-08-13T08:58:13.524Z,21.19
2017-08-13T08:59:24.023Z,20.97
2017-08-13T09:00:34.508Z,20.83
2017-08-13T09:01:45.003Z,20.6
2017-08-13T09:02:55.711Z,20.42
2017-08-13T09:04:05.893Z,20.28
2017-08-13T09:05:16.585Z,20.12
2017-08-13T09:06:27.129Z,20.16
2017-08-13T09:07:37.643Z,20.03
2017-08-13T09:08:48.453Z,20
2017-08-13T09:09:58.909Z,19.92
2017-08-13T09:11:09.449Z,19.9
2017-08-13T09:12:19.925Z,19.86
2017-08-13T09:13:30.324Z,19.95
2017-08-13T09:14:41.096Z,19.93
2017-08-13T09:15:51.612Z,20.24
2017-08-13T09:17:02.184Z,20.28
2017-08-13T09:18:12.691Z,20.27
2017-08-13T09:19:23.207Z,20.42
2017-08-13T09:20:33.950Z,20.54
2017-08-13T09:21:44.517Z,20.76
2017-08-13T09:22:55.038Z,21.01
2017-08-13T09:24:05.516Z,21.25
2017-08-13T09:25:15.719Z,21.58
2017-08-13T09:26:26.140Z,21.72
2017-08-13T09:27:36.639Z,21.97
2017-08-13T09:28:46.846Z,22.01
2017-08-13T09:29:57.336Z,22.23
2017-08-13T09:31:07.816Z,22.43
2017-08-13T09:32:18.120Z,22.82
2017-08-13T09:33:28.624Z,23.05
2017-08-13T09:34:39.118Z,23.2
2017-08-13T09:35:49.604Z,23.39
2017-08-13T09:37:00.111Z,23.48
2017-08-13T09:38:10.909Z,23.58
2017-08-13T09:39:21.006Z,23.35
2017-08-13T09:40:31.612Z,23.05
2017-08-13T09:41:42.080Z,22.86
2017-08-13T09:42:52.697Z,22.71
2017-08-13T09:44:03.441Z,22.48
2017-08-13T09:45:13.917Z,22.26
2017-08-13T09:46:24.429Z,22.05
2017-08-13T09:47:35.077Z,21.87
2017-08-13T09:48:44.848Z,21.57
2017-08-13T09:49:55.595Z,21.54
2017-08-13T09:51:06.057Z,21.93
2017-08-13T09:52:16.092Z,22.58
2017-08-13T09:53:26.812Z,22.87
2017-08-13T09:54:37.202Z,23.01
2017-08-13T09:55:47.942Z,23.16
2017-08-13T09:56:58.160Z,23.21
2017-08-13T09:58:08.743Z,23.05
2017-08-13T09:59:18.907Z,23.02
2017-08-13T10:00:29.400Z,22.98
2017-08-13T10:01:41.139Z,22.86
2017-08-13T10:02:52.293Z,22.71
2017-08-13T10:04:02.802Z,22.67
2017-08-13T10:05:13.309Z,22.46
2017-08-13T10:06:23.769Z,22.38
2017-08-13T10:07:34.738Z,22.27
2017-08-13T10:08:45.257Z,22.2
2017-08-13T10:09:56.748Z,22.24
2017-08-13T10:11:07.393Z,22.23
2017-08-13T10:12:17.916Z,22.31
2017-08-13T10:13:28.731Z,22.39
2017-08-13T10:14:38.774Z,22.6
2017-08-13T10:15:49.253Z,22.64
2017-08-13T10:16:59.740Z,22.64
2017-08-13T10:18:10.391Z,22.78
2017-08-13T10:19:21.291Z,22.68
2017-08-13T10:20:32.350Z,22.75
2017-08-13T10:21:42.971Z,22.7
2017-08-13T10:22:53.497Z,22.63
2017-08-13T10:24:03.791Z,22.35
2017-08-13T10:25:14.543Z,22.33
2017-08-13T10:26:25.316Z,22.2
2017-08-13T10:27:36.035Z,22.12
2017-08-13T10:28:46.531Z,22.03
2017-08-13T10:29:57.042Z,21.9
2017-08-13T10:31:07.563Z,21.91
2017-08-13T10:32:18.067Z,21.78
2017-08-13T10:33:28.605Z,21.57
2017-08-13T10:34:39.136Z,21.56
2017-08-13T10:35:49.867Z,21.54
2017-08-13T10:37:00.661Z,21.56
2017-08-13T10:38:11.319Z,21.57
2017-08-13T10:39:21.849Z,21.49
2017-08-13T10:40:32.033Z,21.57
2017-08-13T10:41:42.663Z,21.64
2017-08-13T10:42:53.391Z,21.53
2017-08-13T10:44:03.998Z,21.4
2017-08-13T10:45:14.537Z,21.38
2017-08-13T10:46:24.799Z,21.22
2017-08-13T10:47:35.353Z,21.25
2017-08-13T10:48:45.444Z,21.06
2017-08-13T10:49:56.111Z,21.01
2017-08-13T10:51:06.685Z,20.88
2017-08-13T10:52:16.910Z,20.79
2017-08-13T10:53:27.502Z,20.81
2017-08-13T10:54:38.317Z,20.81
2017-08-13T10:55:48.900Z,20.78
2017-08-13T10:56:59.456Z,21.1
2017-08-13T10:58:10.007Z,21.56
2017-08-13T10:59:20.619Z,22.12
2017-08-13T11:00:31.416Z,22.65
2017-08-13T11:01:41.996Z,23.2
2017-08-13T11:02:52.673Z,23.43
2017-08-13T11:04:03.275Z,23.7
2017-08-13T11:05:13.882Z,23.8
2017-08-13T11:06:24.711Z,24.1
2017-08-13T11:07:35.176Z,24.54
2017-08-13T11:08:45.832Z,24.75
2017-08-13T11:09:56.141Z,24.78
2017-08-13T11:11:07.002Z,24.69
2017-08-13T11:12:17.812Z,24.62
2017-08-13T11:13:28.494Z,24.51
2017-08-13T11:14:39.459Z,24.38
2017-08-13T11:15:49.990Z,24.02
2017-08-13T11:17:00.549Z,23.76
2017-08-13T11:18:11.520Z,23.54
2017-08-13T11:19:22.061Z,23.21
2017-08-13T11:20:32.613Z,23.11
2017-08-13T11:21:44.089Z,22.89
2017-08-13T11:22:54.658Z,22.71
2017-08-13T11:24:05.637Z,22.57
2017-08-13T11:25:16.236Z,22.4
2017-08-13T11:26:27.787Z,22.18
2017-08-13T11:27:38.527Z,22.02
2017-08-13T11:28:49.118Z,21.71
2017-08-13T11:29:59.896Z,21.53
2017-08-13T11:31:10.635Z,21.2
2017-08-13T11:32:21.315Z,21.12
2017-08-13T11:33:31.989Z,20.85
2017-08-13T11:34:42.664Z,20.76
2017-08-13T11:35:53.635Z,20.54
2017-08-13T11:37:04.257Z,20.39
2017-08-13T11:38:14.849Z,20.31
2017-08-13T11:39:25.251Z,20.26
2017-08-13T11:40:35.749Z,20.14
2017-08-13T11:41:46.667Z,20.05
2017-08-13T11:42:57.251Z,20.03
2017-08-13T11:44:07.459Z,19.92
2017-08-13T11:45:17.939Z,19.98
2017-08-13T11:46:28.430Z,19.95
2017-08-13T11:47:40.367Z,19.98
2017-08-13T11:48:50.875Z,19.89
2017-08-13T11:50:01.496Z,19.85
2017-08-13T11:51:12.008Z,19.88
2017-08-13T11:52:22.291Z,19.9
2017-08-13T11:53:32.995Z,20.3
2017-08-13T11:54:43.521Z,20.61
2017-08-13T11:55:53.945Z,20.97
2017-08-13T11:57:04.430Z,21.4
2017-08-13T11:58:14.970Z,22.02
2017-08-13T11:59:25.272Z,22.42
2017-08-13T12:00:36.339Z,22.86
2017-08-13T12:01:46.884Z,23.31
2017-08-13T12:02:57.468Z,23.65
2017-08-13T12:04:07.995Z,23.92
2017-08-13T12:05:18.461Z,24
2017-08-13T12:06:29.007Z,24.1
2017-08-13T12:07:39.501Z,24.47
2017-08-13T12:08:49.988Z,24.81
2017-08-13T12:10:00.477Z,24.88
2017-08-13T12:11:11.262Z,25.12
2017-08-13T12:12:21.863Z,25.28
2017-08-13T12:13:32.174Z,25.61
2017-08-13T12:14:42.003Z,25.94
2017-08-13T12:15:52.620Z,26.29
2017-08-13T12:17:03.380Z,26.36
2017-08-13T12:18:14.214Z,26.53
2017-08-13T12:19:24.731Z,26.59
2017-08-13T12:20:35.340Z,26.68
2017-08-13T12:21:45.868Z,26.78
2017-08-13T12:22:56.637Z,26.74
2017-08-13T12:24:07.312Z,26.82
2017-08-13T12:25:17.804Z,26.93
2017-08-13T12:26:28.407Z,26.83
2017-08-13T12:27:38.921Z,26.99
2017-08-13T12:28:49.854Z,26.99
2017-08-13T12:30:00.409Z,27.11
2017-08-13T12:31:10.989Z,27.23
2017-08-13T12:32:21.738Z,27.26
2017-08-13T12:33:32.551Z,27.31
2017-08-13T12:34:43.321Z,27.33
2017-08-13T12:35:53.842Z,27.15
2017-08-13T12:37:04.429Z,27.07
2017-08-13T12:38:14.951Z,26.89
2017-08-13T12:39:25.477Z,26.68
2017-08-13T12:40:36.542Z,26.34
2017-08-13T12:41:47.122Z,26
2017-08-13T12:42:57.727Z,25.64
2017-08-13T12:44:08.211Z,25.22
2017-08-13T12:45:18.873Z,24.87
2017-08-13T12:46:29.723Z,24.62
2017-08-13T12:47:40.279Z,24.2
2017-08-13T12:48:50.778Z,23.8
2017-08-13T12:50:01.485Z,23.5
2017-08-13T12:51:11.985Z,23.31
2017-08-13T12:52:23.775Z,22.99
2017-08-13T12:53:34.476Z,22.63
2017-08-13T12:54:45.070Z,22.31
2017-08-13T12:55:55.603Z,22.23
2017-08-13T12:57:06.092Z,22.12
2017-08-13T12:58:16.976Z,22.03
2017-08-13T12:59:27.479Z,21.93
2017-08-13T13:00:37.995Z,21.88
2017-08-13T13:01:48.206Z,21.81
2017-08-13T13:02:58.794Z,21.76
2017-08-13T13:04:09.606Z,21.6
2017-08-13T13:05:19.785Z,21.56
2017-08-13T13:06:30.259Z,21.49
2017-08-13T13:07:40.823Z,21.41
2017-08-13T13:08:51.354Z,21.35
2017-08-13T13:10:02.222Z,21.37
2017-08-13T13:11:12.711Z,21.23
2017-08-13T13:12:22.767Z,21.22
2017-08-13T13:13:33.241Z,21.18
2017-08-13T13:14:43.732Z,21.13
2017-08-13T13:15:55.595Z,21.13
2017-08-13T13:17:06.077Z,21.09
2017-08-13T13:18:16.782Z,21.09
2017-08-13T13:19:26.892Z,21.09
2017-08-13T13:20:37.457Z,21.08
2017-08-13T13:21:48.235Z,21.1
2017-08-13T13:22:58.713Z,21.2
2017-08-13T13:24:08.961Z,21.2
2017-08-13T13:25:19.456Z,21.2
2017-08-13T13:26:29.945Z,21.34
2017-08-13T13:27:40.496Z,21.35
2017-08-13T13:28:50.996Z,21.33
2017-08-13T13:30:01.174Z,21.43
2017-08-13T13:31:11.769Z,21.4
2017-08-13T13:32:22.376Z,21.38
2017-08-13T13:33:33.154Z,21.37
2017-08-13T13:34:43.652Z,21.23
2017-08-13T13:35:54.327Z,21.27
2017-08-13T13:37:04.882Z,21.27
2017-08-13T13:38:15.374Z,21.18
2017-08-13T13:39:26.121Z,21.2
2017-08-13T13:40:36.645Z,21.12
2017-08-13T13:41:48.150Z,21.04
2017-08-13T13:42:58.641Z,21.06
2017-08-13T13:44:09.163Z,20.98
2017-08-13T13:45:19.939Z,20.93
2017-08-13T13:46:30.458Z,20.86
2017-08-13T13:47:41.033Z,20.9
2017-08-13T13:48:51.580Z,20.81
2017-08-13T13:50:02.070Z,20.86
2017-08-13T13:51:12.910Z,20.83
2017-08-13T13:52:23.500Z,20.72
2017-08-13T13:53:34.020Z,20.75
2017-08-13T13:54:44.518Z,20.67
2017-08-13T13:55:55.067Z,20.63
2017-08-13T13:57:05.341Z,20.61
2017-08-13T13:58:15.837Z,20.61
2017-08-13T13:59:26.507Z,20.64
2017-08-13T14:00:37.182Z,20.63
2017-08-13T14:01:47.716Z,20.48
2017-08-13T14:02:58.458Z,20.66
2017-08-13T14:04:08.943Z,20.61
2017-08-13T14:05:19.525Z,20.78
2017-08-13T14:06:29.995Z,20.75
2017-08-13T14:07:40.460Z,20.81
2017-08-13T14:08:51.247Z,20.96
2017-08-13T14:10:01.764Z,21.06
2017-08-13T14:11:12.262Z,21.13
2017-08-13T14:12:22.787Z,21.23
2017-08-13T14:13:33.418Z,21.37
2017-08-13T14:14:44.226Z,21.46
2017-08-13T14:15:54.409Z,21.43
2017-08-13T14:17:05.106Z,21.58
2017-08-13T14:18:15.685Z,21.58
2017-08-13T14:19:26.235Z,21.76
2017-08-13T14:20:37.099Z,21.75
2017-08-13T14:21:48.664Z,21.76
2017-08-13T14:22:59.282Z,21.79
2017-08-13T14:24:09.865Z,21.83
2017-08-13T14:25:20.388Z,21.91
2017-08-13T14:26:30.834Z,21.9
2017-08-13T14:27:40.938Z,21.87
2017-08-13T14:28:51.895Z,21.88
2017-08-13T14:30:02.513Z,21.86
2017-08-13T14:31:13.323Z,21.73
2017-08-13T14:32:23.661Z,21.73
2017-08-13T14:33:33.734Z,21.58
2017-08-13T14:34:44.319Z,21.57
2017-08-13T14:35:54.416Z,21.57
2017-08-13T14:37:06.514Z,21.41
2017-08-13T14:38:17.277Z,21.35
2017-08-13T14:39:27.517Z,21.27
2017-08-13T14:40:38.098Z,21.22
2017-08-13T14:41:48.640Z,21.15
2017-08-13T14:42:59.135Z,21.1
2017-08-13T14:44:09.911Z,21.1
2017-08-13T14:45:20.501Z,21.03
2017-08-13T14:46:30.992Z,20.93
2017-08-13T14:47:41.516Z,20.79
2017-08-13T14:48:52.020Z,20.86
2017-08-13T14:50:02.767Z,20.75
2017-08-13T14:51:13.259Z,20.67
2017-08-13T14:52:23.474Z,20.66
2017-08-13T14:53:33.975Z,20.57
2017-08-13T14:54:44.542Z,20.51
2017-08-13T14:55:54.954Z,20.57
2017-08-13T14:57:05.475Z,20.49
2017-08-13T14:58:15.733Z,20.39
2017-08-13T14:59:26.931Z,20.48
2017-08-13T15:00:37.142Z,20.42
2017-08-13T15:01:47.900Z,20.43
2017-08-13T15:02:58.464Z,20.39
2017-08-13T15:04:09.093Z,20.34
2017-08-13T15:05:19.281Z,20.31
2017-08-13T15:06:29.879Z,20.38
2017-08-13T15:07:40.373Z,20.24
2017-08-13T15:08:50.902Z,20.34
2017-08-13T15:10:00.790Z,20.26
2017-08-13T15:11:11.300Z,20.08
2017-08-13T15:12:21.513Z,20.07
2017-08-13T15:13:32.353Z,20.12